Time;durP1;ratioP1;P1;durP2;ratioP2;P2;SDS_P1;SDS_P2;PMS_P1;PMS_P2;Temp;Humidity;BMP_temperature;BMP_pressure;BME280_temperature;BME280_humidity;BME280_pressure;Samples;Min_cycle;Max_cycle;Signal;HPM_P1;HPM_P2
2022/12/17 13:06:44;;;;;;;;;;;11.80;65.60;;;;;;5034814;28;19920;-82
2022/12/17 13:09:15;;;;;;;;;;;11.70;66.20;;;;;;5035598;28;20000;-81
2022/12/17 13:11:45;;;;;;;;;;;11.70;64.30;;;;;;5052142;28;19916;-82
2022/12/17 13:14:17;;;;;;;;;;;11.70;64.60;;;;;;5053440;28;19956;-82
2022/12/17 13:16:45;;;;;;;;;;;10.80;63.10;;;;;;5052921;28;19959;-82
2022/12/17 13:19:19;;;;;;;;;;;10.20;66.00;;;;;;5053899;28;20429;-82
2022/12/17 13:21:45;;;;;;;;;;;10.50;68.90;;;;;;5052030;28;20263;-81
2022/12/17 13:24:21;;;;;;;;;;;11.20;67.40;;;;;;5054730;28;19916;-82
2022/12/17 13:26:46;;;;;;;;;;;11.30;65.60;;;;;;5052810;28;19909;-82
2022/12/17 13:29:31;;;;;;;;;;;11.00;64.70;;;;;;5052728;28;19944;-82
2022/12/17 13:31:56;;;;;;;;;;;11.20;65.30;;;;;;5051867;28;20717;-82
2022/12/17 13:34:31;;;;;;;;;;;10.60;64.20;;;;;;5050731;28;19991;-83
2022/12/17 13:37:15;;;;;;;;;;;9.40;67.50;;;;;;5052077;28;19920;-84
2022/12/17 13:39:50;;;;;;;;;;;8.30;70.60;;;;;;5053978;28;19908;-82
2022/12/17 13:42:26;;;;;;;;;;;7.20;74.10;;;;;;5052965;28;19916;-82
2022/12/17 13:44:52;;;;;;;;;;;6.30;80.70;;;;;;5070586;28;19916;-80
2022/12/17 13:47:37;;;;;;;;;;;5.20;89.20;;;;;;5069750;28;19912;-82
2022/12/17 13:50:13;;;;;;;;;;;4.50;95.00;;;;;;5069747;28;19909;-81
2022/12/17 13:52:39;;;;;;;;;;;3.90;99.90;;;;;;5070910;28;20618;-81
2022/12/17 13:55:06;;;;;;;;;;;3.60;99.90;;;;;;5072986;28;19958;-81
2022/12/17 13:57:31;;;;;;;;;;;3.30;99.90;;;;;;5072334;28;20058;-81
2022/12/17 13:59:58;;;;;;;;;;;3.00;99.90;;;;;;5057110;28;19952;-81
2022/12/17 14:02:31;;;;;;;;;;;2.80;99.90;;;;;;5056758;28;19952;-81
2022/12/17 14:04:57;;;;;;;;;;;2.50;99.90;;;;;;5056787;28;19916;-82
2022/12/17 14:07:24;;;;;;;;;;;2.30;99.90;;;;;;5072356;28;19913;-81
2022/12/17 14:09:49;;;;;;;;;;;2.00;99.90;;;;;;5057196;28;19959;-82
2022/12/17 14:12:22;;;;;;;;;;;1.90;99.90;;;;;;5072118;28;19909;-80
2022/12/17 14:14:54;;;;;;;;;;;1.80;99.90;;;;;;5073188;28;20369;-81
2022/12/17 14:17:21;;;;;;;;;;;1.70;99.90;;;;;;5071941;28;20335;-81
2022/12/17 14:19:51;;;;;;;;;;;1.70;99.90;;;;;;5071844;28;19917;-81
2022/12/17 14:22:25;;;;;;;;;;;1.60;99.90;;;;;;5071769;28;20262;-81
2022/12/17 14:24:50;;;;;;;;;;;1.50;99.90;;;;;;5072009;28;19912;-81
2022/12/17 14:27:20;;;;;;;;;;;1.40;99.90;;;;;;5056220;28;19909;-81
2022/12/17 14:29:45;;;;;;;;;;;1.30;99.90;;;;;;5071539;28;19909;-82
2022/12/17 14:32:22;;;;;;;;;;;1.20;99.90;;;;;;5071315;28;20282;-81
2022/12/17 14:34:47;;;;;;;;;;;1.10;99.90;;;;;;5071112;28;20003;-81
2022/12/17 14:37:18;;;;;;;;;;;1.10;99.90;;;;;;5071411;28;20025;-82
2022/12/17 14:39:45;;;;;;;;;;;1.00;99.90;;;;;;5071066;28;19909;-81
2022/12/17 14:42:31;;;;;;;;;;;1.00;99.90;;;;;;5070653;28;19920;-81
2022/12/17 14:45:01;;;;;;;;;;;0.90;99.90;;;;;;5071366;28;19917;-81
2022/12/17 14:47:28;;;;;;;;;;;0.80;99.90;;;;;;5071684;28;19909;-81
2022/12/17 14:50:01;;;;;;;;;;;0.80;99.90;;;;;;5071638;28;19912;-82
2022/12/17 14:52:31;;;;;;;;;;;0.70;99.90;;;;;;5055239;28;20302;-81
2022/12/17 14:54:57;;;;;;;;;;;0.60;99.90;;;;;;5070897;28;19909;-81
2022/12/17 14:57:22;;;;;;;;;;;0.60;99.90;;;;;;5070929;28;20393;-81
2022/12/17 14:59:49;;;;;;;;;;;0.50;99.90;;;;;;5071936;28;19915;-81
2022/12/17 15:02:22;;;;;;;;;;;0.50;99.90;;;;;;5071272;28;19912;-80
2022/12/17 15:04:49;;;;;;;;;;;0.40;99.90;;;;;;5072041;28;19916;-81
2022/12/17 15:07:20;;;;;;;;;;;0.30;99.90;;;;;;5071965;28;20469;-80
2022/12/17 15:09:45;;;;;;;;;;;0.20;99.90;;;;;;5071331;28;19915;-80
2022/12/17 15:12:11;;;;;;;;;;;0.20;99.90;;;;;;5069879;28;20003;-80
2022/12/17 15:14:36;;;;;;;;;;;0.20;99.90;;;;;;5071865;28;19959;-81
2022/12/17 15:17:02;;;;;;;;;;;0.10;99.90;;;;;;5071704;28;19913;-81
2022/12/17 15:19:27;;;;;;;;;;;0.00;99.90;;;;;;5070238;28;19955;-81
2022/12/17 15:21:53;;;;;;;;;;;0.00;99.90;;;;;;5054743;28;19991;-81
2022/12/17 15:24:19;;;;;;;;;;;-0.10;99.90;;;;;;5055134;28;19944;-81
2022/12/17 15:26:45;;;;;;;;;;;-0.20;99.90;;;;;;5070385;28;19959;-81
2022/12/17 15:29:11;;;;;;;;;;;-0.20;99.90;;;;;;5070324;28;19908;-81
2022/12/17 15:31:36;;;;;;;;;;;-0.30;99.90;;;;;;5054360;28;19916;-81
2022/12/17 15:34:02;;;;;;;;;;;-0.40;99.90;;;;;;5070033;28;19909;-81
2022/12/17 15:36:28;;;;;;;;;;;-0.40;99.90;;;;;;5070425;28;19909;-82
2022/12/17 15:38:54;;;;;;;;;;;-0.40;99.90;;;;;;5054726;28;19932;-81
2022/12/17 15:44:03;;;;;;;;;;;-0.50;99.90;;;;;;5055156;28;19919;-81
2022/12/17 15:46:29;;;;;;;;;;;-0.60;99.90;;;;;;5069975;28;19952;-80
2022/12/17 15:48:55;;;;;;;;;;;-0.60;99.90;;;;;;5070261;28;19920;-80
2022/12/17 15:51:22;;;;;;;;;;;-0.60;99.90;;;;;;5069535;28;19909;-80
2022/12/17 15:53:48;;;;;;;;;;;-0.70;99.90;;;;;;5054367;28;19909;-81
2022/12/17 15:56:17;;;;;;;;;;;-0.70;99.90;;;;;;5069920;28;19912;-80
2022/12/17 15:58:42;;;;;;;;;;;-0.70;99.90;;;;;;5054486;28;19915;-81
2022/12/17 16:01:08;;;;;;;;;;;-0.70;99.90;;;;;;5069345;28;20352;-81
2022/12/17 16:03:33;;;;;;;;;;;-0.70;99.90;;;;;;5070446;28;19909;-81
2022/12/17 16:05:59;;;;;;;;;;;-0.80;99.90;;;;;;5056196;28;20007;-81
2022/12/17 16:08:25;;;;;;;;;;;-0.80;99.90;;;;;;5055395;28;19915;-80
2022/12/17 16:10:50;;;;;;;;;;;-0.90;99.90;;;;;;5070187;28;20310;-81
2022/12/17 16:13:16;;;;;;;;;;;-1.00;99.90;;;;;;5070197;28;19912;-83
2022/12/17 16:15:41;;;;;;;;;;;-1.00;99.90;;;;;;5075095;28;19909;-80
2022/12/17 16:18:07;;;;;;;;;;;-1.10;99.90;;;;;;5082271;28;19948;-81
2022/12/17 16:20:33;;;;;;;;;;;-1.10;99.90;;;;;;5085780;28;19968;-82
2022/12/17 16:22:59;;;;;;;;;;;-1.20;99.90;;;;;;5087151;28;19909;-81
2022/12/17 16:25:25;;;;;;;;;;;-1.20;99.90;;;;;;5081418;28;20378;-82
2022/12/17 16:27:51;;;;;;;;;;;-1.30;99.90;;;;;;5067324;28;19932;-82
2022/12/17 16:30:16;;;;;;;;;;;-1.30;99.90;;;;;;5066849;28;19908;-82
2022/12/17 16:32:42;;;;;;;;;;;-1.40;99.90;;;;;;5080728;28;19956;-81
2022/12/17 16:35:07;;;;;;;;;;;-1.40;99.90;;;;;;5081218;28;19909;-82
2022/12/17 16:37:33;;;;;;;;;;;-1.40;99.90;;;;;;5081090;28;19920;-82
2022/12/17 16:39:58;;;;;;;;;;;-1.40;99.90;;;;;;5080486;28;19972;-81
2022/12/17 16:42:24;;;;;;;;;;;-1.50;99.90;;;;;;5080688;28;20370;-81
2022/12/17 16:44:49;;;;;;;;;;;-1.50;99.90;;;;;;5080597;28;19951;-82
2022/12/17 16:47:15;;;;;;;;;;;-1.50;99.90;;;;;;5080991;28;19909;-81
2022/12/17 16:49:40;;;;;;;;;;;-1.50;99.90;;;;;;5080244;28;19919;-82
2022/12/17 16:52:06;;;;;;;;;;;-1.60;99.90;;;;;;5080580;28;19909;-82
2022/12/17 16:54:32;;;;;;;;;;;-1.60;99.90;;;;;;5064476;28;19909;-82
2022/12/17 16:57:01;;;;;;;;;;;-1.70;99.90;;;;;;5080812;28;19909;-82
2022/12/17 16:59:27;;;;;;;;;;;-1.70;99.90;;;;;;5076743;28;19913;-82
2022/12/17 17:01:52;;;;;;;;;;;-1.70;99.90;;;;;;5080262;28;19924;-82
2022/12/17 17:04:19;;;;;;;;;;;-1.80;99.90;;;;;;5077035;28;20309;-82
2022/12/17 17:06:46;;;;;;;;;;;-1.80;99.90;;;;;;5077450;28;19958;-83
2022/12/17 17:09:12;;;;;;;;;;;-1.80;99.90;;;;;;5079146;28;19972;-82
2022/12/17 17:11:38;;;;;;;;;;;-1.90;99.90;;;;;;5078859;28;20362;-83
2022/12/17 17:14:04;;;;;;;;;;;-1.90;99.90;;;;;;5079464;28;19944;-81
2022/12/17 17:16:30;;;;;;;;;;;-1.90;99.90;;;;;;5079335;28;20003;-82
2022/12/17 17:18:55;;;;;;;;;;;-1.90;99.90;;;;;;5077750;28;19995;-81
2022/12/17 17:21:22;;;;;;;;;;;-2.00;99.90;;;;;;5059762;28;19927;-81
2022/12/17 17:23:52;;;;;;;;;;;-2.00;99.90;;;;;;5075204;28;19909;-82
2022/12/17 17:26:18;;;;;;;;;;;-2.10;99.90;;;;;;5077543;28;19909;-81
2022/12/17 17:28:44;;;;;;;;;;;-2.10;99.90;;;;;;5079299;28;20343;-81
2022/12/17 17:31:11;;;;;;;;;;;-2.10;99.90;;;;;;5079799;28;20393;-81
2022/12/17 17:33:38;;;;;;;;;;;-2.10;99.90;;;;;;5079585;28;19916;-81
2022/12/17 17:36:03;;;;;;;;;;;-2.10;99.90;;;;;;5079984;28;19908;-82
2022/12/17 17:38:29;;;;;;;;;;;-2.10;99.90;;;;;;5079497;28;19920;-81
2022/12/17 17:40:56;;;;;;;;;;;-2.10;99.90;;;;;;5064219;28;19919;-82
2022/12/17 17:43:21;;;;;;;;;;;-2.10;99.90;;;;;;5078400;28;19947;-82
2022/12/17 17:45:47;;;;;;;;;;;-2.10;99.90;;;;;;5079247;28;20367;-81
2022/12/17 17:48:12;;;;;;;;;;;-2.10;99.90;;;;;;5063995;28;19921;-81
2022/12/17 17:50:38;;;;;;;;;;;-2.10;99.90;;;;;;5063253;28;19909;-81
2022/12/17 17:53:03;;;;;;;;;;;-2.10;99.90;;;;;;5077698;28;19909;-81
2022/12/17 17:55:29;;;;;;;;;;;-2.10;99.90;;;;;;5063761;28;19916;-81
2022/12/17 17:57:54;;;;;;;;;;;-2.10;99.90;;;;;;5077504;28;20358;-82
2022/12/17 18:00:20;;;;;;;;;;;-2.10;99.90;;;;;;5078130;28;19909;-81
2022/12/17 18:02:48;;;;;;;;;;;-2.10;99.90;;;;;;5077273;28;19916;-81
2022/12/17 18:05:14;;;;;;;;;;;-2.10;99.90;;;;;;5074141;28;20005;-82
2022/12/17 18:07:39;;;;;;;;;;;-2.10;99.90;;;;;;5072721;28;19909;-82
2022/12/17 18:10:05;;;;;;;;;;;-2.10;99.90;;;;;;5057048;28;19916;-82
2022/12/17 18:15:14;;;;;;;;;;;-2.10;99.90;;;;;;5057142;28;19916;-83
2022/12/17 18:17:40;;;;;;;;;;;-2.10;99.90;;;;;;5072641;28;19908;-82
2022/12/17 18:20:08;;;;;;;;;;;-2.10;99.90;;;;;;5072155;28;19960;-82
2022/12/17 18:22:34;;;;;;;;;;;-2.10;99.90;;;;;;5079461;22;20389;-85
2022/12/17 18:24:59;;;;;;;;;;;-2.20;99.90;;;;;;5053959;28;19909;-84
2022/12/17 18:27:25;;;;;;;;;;;-2.20;99.90;;;;;;5054387;28;20358;-84
2022/12/17 18:29:50;;;;;;;;;;;-2.20;99.90;;;;;;5054151;28;19916;-85
2022/12/17 18:32:16;;;;;;;;;;;-2.30;99.90;;;;;;5053764;28;19959;-84
2022/12/17 18:34:41;;;;;;;;;;;-2.30;99.90;;;;;;5054298;28;19951;-84
2022/12/17 18:37:07;;;;;;;;;;;-2.30;99.90;;;;;;5053006;28;20297;-85
2022/12/17 18:39:32;;;;;;;;;;;-2.30;99.90;;;;;;5055245;28;19932;-84
2022/12/17 18:44:42;;;;;;;;;;;-2.30;99.90;;;;;;5055972;28;19939;-85
2022/12/17 18:47:08;;;;;;;;;;;-2.30;99.90;;;;;;5053501;28;19909;-84
2022/12/17 18:49:33;;;;;;;;;;;-2.40;99.90;;;;;;5055135;28;19909;-84
2022/12/17 18:51:59;;;;;;;;;;;-2.40;99.90;;;;;;5054512;28;19913;-84
2022/12/17 18:54:26;;;;;;;;;;;-2.40;99.90;;;;;;5053823;28;19909;-84
2022/12/17 18:56:53;;;;;;;;;;;-2.40;99.90;;;;;;5053626;28;19909;-85
2022/12/17 18:59:19;;;;;;;;;;;-2.40;99.90;;;;;;5054930;28;20384;-85
2022/12/17 19:01:45;;;;;;;;;;;-2.40;99.90;;;;;;5053414;28;20017;-84
2022/12/17 19:04:12;;;;;;;;;;;-2.50;99.90;;;;;;5054885;28;19909;-85
2022/12/17 19:06:38;;;;;;;;;;;-2.50;99.90;;;;;;5053493;28;19909;-85
2022/12/17 19:09:04;;;;;;;;;;;-2.50;99.90;;;;;;5054622;28;19909;-84
2022/12/17 19:11:30;;;;;;;;;;;-2.50;99.90;;;;;;5053034;28;19943;-85
2022/12/17 19:13:55;;;;;;;;;;;-2.50;99.90;;;;;;5054758;28;19912;-85
2022/12/17 19:16:22;;;;;;;;;;;-2.50;99.90;;;;;;5053330;28;20000;-84
2022/12/17 19:18:52;;;;;;;;;;;-2.50;99.90;;;;;;5054642;28;19916;-84
2022/12/17 19:21:17;;;;;;;;;;;-2.60;99.90;;;;;;5053796;28;20366;-85
2022/12/17 19:23:44;;;;;;;;;;;-2.60;99.90;;;;;;5052673;28;19924;-84
2022/12/17 19:26:14;;;;;;;;;;;-2.60;99.90;;;;;;5036607;28;19913;-85
2022/12/17 19:28:40;;;;;;;;;;;-2.60;99.90;;;;;;5053289;28;19908;-85
2022/12/17 19:31:06;;;;;;;;;;;-2.60;99.90;;;;;;5052795;28;19912;-85
2022/12/17 19:33:32;;;;;;;;;;;-2.60;99.90;;;;;;5052876;28;20420;-85
2022/12/17 19:35:58;;;;;;;;;;;-2.60;99.90;;;;;;5052837;28;19939;-84
2022/12/17 19:38:23;;;;;;;;;;;-2.60;99.90;;;;;;5052932;28;19909;-84
2022/12/17 19:40:51;;;;;;;;;;;-2.70;99.90;;;;;;5053694;28;20465;-85
2022/12/17 19:43:16;;;;;;;;;;;-2.70;99.90;;;;;;5052563;28;20290;-84
2022/12/17 19:45:42;;;;;;;;;;;-2.60;99.90;;;;;;5053026;28;19909;-84
2022/12/17 19:48:07;;;;;;;;;;;-2.70;99.90;;;;;;5053093;28;19908;-85
2022/12/17 19:50:33;;;;;;;;;;;-2.70;99.90;;;;;;5052687;28;19963;-85
2022/12/17 19:52:58;;;;;;;;;;;-2.70;99.90;;;;;;5052381;28;20385;-85
2022/12/17 19:55:24;;;;;;;;;;;-2.70;99.90;;;;;;5052973;28;19912;-85
2022/12/17 19:57:49;;;;;;;;;;;-2.60;99.90;;;;;;5052979;28;20007;-84
2022/12/17 20:00:15;;;;;;;;;;;-2.70;99.90;;;;;;5052893;28;19978;-84
2022/12/17 20:02:40;;;;;;;;;;;-2.70;99.90;;;;;;5052108;28;19908;-85
2022/12/17 20:05:06;;;;;;;;;;;-2.70;99.90;;;;;;5052671;28;19909;-85
2022/12/17 20:07:31;;;;;;;;;;;-2.70;99.90;;;;;;5052727;28;19908;-84
2022/12/17 20:09:57;;;;;;;;;;;-2.70;99.90;;;;;;5052446;28;19962;-85
2022/12/17 20:12:22;;;;;;;;;;;-2.70;99.90;;;;;;5051935;28;19913;-85
2022/12/17 20:14:48;;;;;;;;;;;-2.70;99.90;;;;;;5052525;28;19913;-84
2022/12/17 20:17:13;;;;;;;;;;;-2.70;99.90;;;;;;5052230;28;19909;-85
2022/12/17 20:19:39;;;;;;;;;;;-2.70;99.90;;;;;;5052052;28;19915;-84
2022/12/17 20:22:05;;;;;;;;;;;-2.70;99.90;;;;;;5051651;28;19966;-84
2022/12/17 20:24:30;;;;;;;;;;;-2.70;99.90;;;;;;5053369;28;19908;-84
2022/12/17 20:26:56;;;;;;;;;;;-2.60;99.90;;;;;;5051759;28;20334;-85
2022/12/17 20:29:22;;;;;;;;;;;-2.60;99.90;;;;;;5051979;28;20427;-85
2022/12/17 20:31:51;;;;;;;;;;;-2.60;99.90;;;;;;5051470;28;19913;-85
2022/12/17 20:34:18;;;;;;;;;;;-2.50;99.90;;;;;;5051858;28;19908;-85
2022/12/17 20:36:43;;;;;;;;;;;-2.50;99.90;;;;;;5052969;28;19909;-85
2022/12/17 20:39:10;;;;;;;;;;;-2.50;99.90;;;;;;5051703;28;20329;-84
2022/12/17 20:41:35;;;;;;;;;;;-2.50;99.90;;;;;;5051421;28;20359;-85
2022/12/17 20:44:12;;;;;;;;;;;-2.60;99.90;;;;;;5051924;28;19936;-84
2022/12/17 20:46:39;;;;;;;;;;;-2.60;99.90;;;;;;5052988;28;19962;-85
2022/12/17 20:49:06;;;;;;;;;;;-2.60;99.90;;;;;;5051689;28;19958;-85
2022/12/17 20:51:31;;;;;;;;;;;-2.60;99.90;;;;;;5052483;28;19913;-84
2022/12/17 20:53:58;;;;;;;;;;;-2.70;99.90;;;;;;5051499;28;19908;-84
2022/12/17 20:56:25;;;;;;;;;;;-2.70;99.90;;;;;;5051525;28;20285;-85
2022/12/17 20:58:52;;;;;;;;;;;-2.70;99.90;;;;;;5051786;28;19967;-83
2022/12/17 21:01:19;;;;;;;;;;;-2.70;99.90;;;;;;5050657;28;19978;-84
2022/12/17 21:03:45;;;;;;;;;;;-2.70;99.90;;;;;;5051304;28;19952;-85
2022/12/17 21:06:12;;;;;;;;;;;-2.70;99.90;;;;;;5051597;28;20009;-85
2022/12/17 21:08:38;;;;;;;;;;;-2.70;99.90;;;;;;5051664;28;20012;-84
2022/12/17 21:11:03;;;;;;;;;;;-2.70;99.90;;;;;;5050345;28;20016;-85
2022/12/17 21:13:29;;;;;;;;;;;-2.70;99.90;;;;;;5051312;28;20386;-85
2022/12/17 21:16:00;;;;;;;;;;;-2.70;99.90;;;;;;5051353;28;19916;-85
2022/12/17 21:18:26;;;;;;;;;;;-2.70;99.90;;;;;;5051184;28;19916;-85
2022/12/17 21:20:53;;;;;;;;;;;-2.70;99.90;;;;;;5051075;28;19909;-84
2022/12/17 21:23:18;;;;;;;;;;;-2.80;99.90;;;;;;5051125;28;19966;-84
2022/12/17 21:25:44;;;;;;;;;;;-2.70;99.90;;;;;;5051121;28;19909;-84
2022/12/17 21:28:09;;;;;;;;;;;-2.70;99.90;;;;;;5050811;28;19909;-84
2022/12/17 21:30:36;;;;;;;;;;;-2.70;99.90;;;;;;5050599;28;19959;-85
2022/12/17 21:33:13;;;;;;;;;;;-2.80;99.90;;;;;;5051973;28;19909;-85
2022/12/17 21:35:39;;;;;;;;;;;-2.80;99.90;;;;;;5050870;28;20003;-85
2022/12/17 21:38:04;;;;;;;;;;;-2.70;99.90;;;;;;5052191;28;20448;-84
2022/12/17 21:40:30;;;;;;;;;;;-2.70;99.90;;;;;;5050797;28;19916;-84
2022/12/17 21:43:01;;;;;;;;;;;-2.70;99.90;;;;;;5050504;28;19916;-85
2022/12/17 21:45:38;;;;;;;;;;;-2.70;99.90;;;;;;5050741;28;19913;-84
2022/12/17 21:48:04;;;;;;;;;;;-2.70;99.90;;;;;;5051022;28;19909;-84
2022/12/17 21:50:30;;;;;;;;;;;-2.70;99.90;;;;;;5052032;28;19909;-85
2022/12/17 21:52:55;;;;;;;;;;;-2.60;99.90;;;;;;5051675;28;19909;-84
2022/12/17 21:55:21;;;;;;;;;;;-2.60;99.90;;;;;;5050842;28;20270;-85
2022/12/17 21:57:46;;;;;;;;;;;-2.60;99.90;;;;;;5051903;28;19909;-85
2022/12/17 22:00:12;;;;;;;;;;;-2.60;99.90;;;;;;5052119;28;19909;-85
2022/12/17 22:02:37;;;;;;;;;;;-2.60;99.90;;;;;;5050393;28;19908;-84
2022/12/17 22:05:03;;;;;;;;;;;-2.60;99.90;;;;;;5050709;28;19974;-84
2022/12/17 22:07:28;;;;;;;;;;;-2.60;99.90;;;;;;5050775;28;19909;-84
2022/12/17 22:09:54;;;;;;;;;;;-2.60;99.90;;;;;;5052001;28;19908;-84
2022/12/17 22:15:04;;;;;;;;;;;-2.70;99.90;;;;;;5056030;28;19962;-84
2022/12/17 22:17:29;;;;;;;;;;;-2.70;99.90;;;;;;5054235;28;19909;-84
2022/12/17 22:19:55;;;;;;;;;;;-2.70;99.90;;;;;;5058007;28;19916;-84
2022/12/17 22:22:20;;;;;;;;;;;-2.70;99.90;;;;;;5054542;28;19978;-84
2022/12/17 22:24:51;;;;;;;;;;;-2.70;99.90;;;;;;5054721;28;19970;-89
2022/12/17 22:27:19;;;;;;;;;;;-2.70;99.90;;;;;;5055214;28;20007;-85
2022/12/17 22:35:13;;;;;;;;;;;-2.70;99.90;;;;;;5056036;28;19972;-84
2022/12/17 22:37:39;;;;;;;;;;;-2.70;99.90;;;;;;5055583;28;20332;-84
2022/12/17 22:40:05;;;;;;;;;;;-2.70;99.90;;;;;;5054230;28;19924;-84
2022/12/17 22:45:38;;;;;;;;;;;-2.70;99.90;;;;;;5073094;28;19909;-84
2022/12/17 22:48:04;;;;;;;;;;;-2.70;99.90;;;;;;5072720;28;19909;-84
2022/12/17 22:50:29;;;;;;;;;;;-2.70;99.90;;;;;;5064347;28;19913;-84
2022/12/17 22:52:55;;;;;;;;;;;-2.70;99.90;;;;;;5053746;28;20358;-85
2022/12/17 22:55:20;;;;;;;;;;;-2.70;99.90;;;;;;5053536;28;19931;-85
2022/12/17 22:57:46;;;;;;;;;;;-2.70;99.90;;;;;;5053456;28;19913;-85
2022/12/17 23:00:18;;;;;;;;;;;-2.70;99.90;;;;;;5054707;28;19932;-85
2022/12/17 23:02:43;;;;;;;;;;;-2.70;99.90;;;;;;5052951;28;19909;-85
2022/12/17 23:05:09;;;;;;;;;;;-2.70;99.90;;;;;;5053102;28;19909;-84
2022/12/17 23:07:34;;;;;;;;;;;-2.70;99.90;;;;;;5053358;28;19931;-84
2022/12/17 23:10:03;;;;;;;;;;;-2.70;99.90;;;;;;5053454;28;19916;-84
2022/12/17 23:15:13;;;;;;;;;;;-2.80;99.90;;;;;;5054988;28;19916;-85
2022/12/17 23:17:39;;;;;;;;;;;-2.90;99.90;;;;;;5053386;28;19913;-84
2022/12/17 23:20:04;;;;;;;;;;;-2.90;99.90;;;;;;5053389;28;19908;-85
2022/12/17 23:22:30;;;;;;;;;;;-2.90;99.90;;;;;;5054066;28;19916;-84
2022/12/17 23:24:55;;;;;;;;;;;-2.90;99.90;;;;;;5052885;28;19948;-84
2022/12/17 23:27:21;;;;;;;;;;;-2.90;99.90;;;;;;5053170;28;20394;-84
2022/12/17 23:29:46;;;;;;;;;;;-3.00;99.90;;;;;;5054376;28;19908;-84
2022/12/17 23:32:12;;;;;;;;;;;-3.00;99.90;;;;;;5052456;28;19916;-84
2022/12/17 23:34:37;;;;;;;;;;;-2.90;99.90;;;;;;5052675;28;19913;-85
2022/12/17 23:37:03;;;;;;;;;;;-3.00;99.90;;;;;;5052938;28;19931;-84
2022/12/17 23:39:28;;;;;;;;;;;-3.00;99.90;;;;;;5053015;28;19913;-84
2022/12/17 23:41:54;;;;;;;;;;;-3.00;99.90;;;;;;5053810;28;20370;-84
2022/12/17 23:44:19;;;;;;;;;;;-3.00;99.90;;;;;;5052822;28;20363;-84
2022/12/17 23:46:45;;;;;;;;;;;-3.00;99.90;;;;;;5054107;28;19908;-85
2022/12/17 23:49:10;;;;;;;;;;;-3.00;99.90;;;;;;5052742;28;20419;-85
2022/12/17 23:51:36;;;;;;;;;;;-3.00;99.90;;;;;;5052396;28;19913;-84
2022/12/17 23:54:01;;;;;;;;;;;-3.00;99.90;;;;;;5052868;28;20004;-84
2022/12/17 23:56:27;;;;;;;;;;;-3.00;99.90;;;;;;5052529;28;19916;-84
2022/12/17 23:59:00;;;;;;;;;;;-3.00;99.90;;;;;;5052544;28;20396;-85
